Desford, United Kingdom
Current Conditions -  °F | °C
As of 9:50 PM on Monday 22 Dec 2014 (Local Time) from EGNX Reporting Station
Scattered Clouds Scattered Clouds  
Wind Chill: 54°   Ceiling: Unl
Heat Index: 54°   Visibility: 6mi
Dew Point: 48°   Wind: 23mph
Humidity: 82%   Direction: 230°SW
Pressure: 29.88"   Gusts: 36mph
Location:  52.63°N, 1.29°W
Report Text: EGNX 222150Z 23020G31KT 9999 SCT014 SCT020 12/09 Q1012
Loading
Personal Weather Stations






























Interactive Weather Map New forecast layout! Learn more

10-Day Weather Forecast

Advertisements
Track Severe Weather on mobile